createdAt,value
2022-09-25T00:03:32.762Z,13.80
2022-09-25T00:07:14.648Z,13.80
2022-09-25T00:10:56.764Z,13.70
2022-09-25T00:14:38.572Z,13.70
2022-09-25T00:18:39.919Z,13.70
2022-09-25T00:22:24.709Z,13.70
2022-09-25T00:26:08.278Z,13.70
2022-09-25T00:29:50.077Z,13.60
2022-09-25T00:33:33.272Z,13.60
2022-09-25T00:37:15.148Z,13.60
2022-09-25T00:40:57.047Z,13.60
2022-09-25T00:44:46.479Z,13.50
2022-09-25T00:48:30.332Z,13.40
2022-09-25T00:52:13.786Z,13.40
2022-09-25T00:55:56.569Z,13.30
2022-09-25T00:59:41.806Z,13.20
2022-09-25T01:03:24.296Z,13.10
2022-09-25T01:07:07.108Z,13.10
2022-09-25T01:10:49.060Z,13.00
2022-09-25T01:14:34.152Z,13.00
2022-09-25T01:18:34.500Z,12.90
2022-09-25T01:22:30.384Z,12.80
2022-09-25T01:26:49.889Z,12.80
2022-09-25T01:30:38.292Z,12.70
2022-09-25T01:34:40.507Z,12.60
2022-09-25T01:38:35.740Z,12.50
2022-09-25T01:42:27.146Z,12.40
2022-09-25T01:46:33.306Z,12.40
2022-09-25T01:50:22.806Z,12.30
2022-09-25T01:54:11.090Z,12.20
2022-09-25T01:58:30.544Z,12.20
2022-09-25T02:02:15.857Z,12.00
2022-09-25T02:06:02.486Z,12.00
2022-09-25T02:09:50.167Z,11.90
2022-09-25T02:13:50.368Z,11.90
2022-09-25T02:18:08.829Z,11.80
2022-09-25T02:22:04.775Z,11.80
2022-09-25T02:25:56.626Z,11.80
2022-09-25T02:29:38.836Z,11.70
2022-09-25T02:33:20.705Z,11.70
2022-09-25T02:37:02.530Z,11.70
2022-09-25T02:40:53.079Z,11.60
2022-09-25T02:44:53.772Z,11.60
2022-09-25T02:48:50.552Z,11.60
2022-09-25T02:52:40.667Z,11.50
2022-09-25T02:56:29.034Z,11.50
2022-09-25T03:00:12.929Z,11.50
2022-09-25T03:03:58.079Z,11.40
2022-09-25T03:08:19.049Z,11.30
2022-09-25T03:12:03.443Z,11.30
2022-09-25T03:15:50.814Z,11.20
2022-09-25T03:19:34.795Z,11.10
2022-09-25T03:23:16.821Z,11.10
2022-09-25T03:26:58.626Z,11.10
2022-09-25T03:30:41.002Z,11.00
2022-09-25T03:34:23.131Z,11.00
2022-09-25T03:38:05.075Z,10.90
2022-09-25T03:41:47.867Z,10.90
2022-09-25T03:45:29.874Z,10.80
2022-09-25T03:49:12.809Z,10.80
2022-09-25T03:52:54.653Z,10.70
2022-09-25T03:56:36.710Z,10.70
2022-09-25T04:00:18.555Z,10.60
2022-09-25T04:04:03.225Z,10.50
2022-09-25T04:07:45.165Z,10.50
2022-09-25T04:11:26.959Z,10.40
2022-09-25T04:15:10.075Z,10.30
2022-09-25T04:18:51.892Z,10.20
2022-09-25T04:22:33.654Z,10.20
2022-09-25T04:26:15.448Z,10.10
2022-09-25T04:29:57.416Z,10.10
2022-09-25T04:33:48.361Z,10.00
2022-09-25T04:37:30.336Z,10.00
2022-09-25T04:41:12.281Z,9.90
2022-09-25T04:44:56.117Z,9.80
2022-09-25T04:48:38.172Z,9.70
2022-09-25T04:52:20.720Z,9.60
2022-09-25T04:56:04.371Z,9.60
2022-09-25T04:59:46.417Z,9.50
2022-09-25T05:03:30.022Z,9.40
2022-09-25T05:07:12.131Z,9.30
2022-09-25T05:10:54.174Z,9.30
2022-09-25T05:14:36.016Z,9.20
2022-09-25T05:18:21.332Z,9.20
2022-09-25T05:22:03.568Z,9.10
2022-09-25T05:25:52.022Z,9.10
2022-09-25T05:29:34.559Z,9.00
2022-09-25T05:33:16.447Z,8.90
2022-09-25T05:36:58.220Z,8.90
2022-09-25T05:40:40.149Z,8.80
2022-09-25T05:44:21.991Z,8.70
2022-09-25T05:48:06.322Z,8.70
2022-09-25T05:51:48.487Z,8.70
2022-09-25T05:55:31.024Z,8.60
2022-09-25T05:59:13.059Z,8.50
2022-09-25T06:02:54.842Z,8.40
2022-09-25T06:06:36.661Z,8.40
2022-09-25T06:10:18.462Z,8.30
2022-09-25T06:14:00.222Z,8.30
2022-09-25T06:17:42.008Z,8.30
2022-09-25T06:21:24.436Z,8.20
2022-09-25T06:25:07.141Z,8.20
2022-09-25T06:28:48.959Z,8.20
2022-09-25T06:32:30.737Z,8.20
2022-09-25T06:36:12.501Z,8.20
2022-09-25T06:39:54.299Z,8.10
2022-09-25T06:43:36.092Z,8.10
2022-09-25T06:47:19.678Z,8.20
2022-09-25T06:51:03.588Z,8.10
2022-09-25T06:54:45.476Z,8.10
2022-09-25T06:58:27.948Z,8.10
2022-09-25T07:02:28.758Z,8.10
2022-09-25T07:06:12.937Z,8.10
2022-09-25T07:09:54.775Z,8.20
2022-09-25T07:13:36.898Z,8.20
2022-09-25T07:17:18.688Z,8.20
2022-09-25T07:21:15.104Z,8.20
2022-09-25T07:24:56.893Z,8.20
2022-09-25T07:28:40.095Z,8.30
2022-09-25T07:32:21.979Z,8.30
2022-09-25T07:36:03.887Z,8.30
2022-09-25T07:39:45.732Z,8.40
2022-09-25T07:43:27.528Z,8.40
2022-09-25T07:47:09.331Z,8.50
2022-09-25T07:50:51.185Z,8.60
2022-09-25T07:54:34.685Z,8.60
2022-09-25T07:58:19.601Z,8.70
2022-09-25T08:02:03.052Z,8.80
2022-09-25T08:05:44.891Z,8.90
2022-09-25T08:09:26.803Z,9.00
2022-09-25T08:13:08.665Z,9.20
2022-09-25T08:16:50.473Z,9.30
2022-09-25T08:20:32.247Z,9.50
2022-09-25T08:24:14.109Z,9.70
2022-09-25T08:27:55.914Z,9.90
2022-09-25T08:31:37.825Z,10.10
2022-09-25T08:35:19.724Z,10.30
2022-09-25T08:39:01.653Z,10.40
2022-09-25T08:42:45.961Z,10.50
2022-09-25T08:47:05.648Z,10.70
2022-09-25T08:50:48.002Z,11.20
2022-09-25T08:54:32.041Z,11.50
2022-09-25T08:58:40.263Z,11.90
2022-09-25T09:02:26.394Z,12.20
2022-09-25T09:06:14.943Z,12.60
2022-09-25T09:10:09.287Z,13.00
2022-09-25T09:14:11.028Z,13.30
2022-09-25T09:17:54.792Z,13.40
2022-09-25T09:22:00.763Z,13.50
2022-09-25T09:26:14.243Z,13.40
2022-09-25T09:30:18.472Z,13.50
2022-09-25T09:35:00.878Z,13.70
2022-09-25T09:38:50.862Z,14.00
2022-09-25T09:42:48.145Z,14.40
2022-09-25T09:46:52.392Z,15.00
2022-09-25T09:50:52.871Z,16.10
2022-09-25T09:54:50.691Z,17.20
2022-09-25T09:58:58.332Z,18.60
2022-09-25T10:02:48.939Z,19.90
2022-09-25T10:06:37.480Z,21.10
2022-09-25T10:10:20.098Z,22.00
2022-09-25T10:14:04.449Z,22.80
2022-09-25T10:17:47.013Z,23.70
2022-09-25T10:21:54.245Z,24.50
2022-09-25T10:25:38.754Z,25.20
2022-09-25T10:29:23.208Z,25.90
2022-09-25T10:33:14.415Z,26.50
2022-09-25T10:36:56.216Z,26.90
2022-09-25T10:40:39.413Z,27.10
2022-09-25T10:44:41.487Z,27.00
2022-09-25T10:48:56.125Z,27.10
2022-09-25T10:52:53.105Z,27.20
2022-09-25T10:56:38.985Z,27.60
2022-09-25T11:00:24.815Z,27.90
2022-09-25T11:04:20.256Z,28.30
2022-09-25T11:08:05.553Z,28.70
2022-09-25T11:11:49.423Z,29.00
2022-09-25T11:15:31.235Z,29.20
2022-09-25T11:19:28.867Z,29.30
2022-09-25T11:23:41.218Z,29.60
2022-09-25T11:27:36.971Z,30.10
2022-09-25T11:31:25.560Z,30.50
2022-09-25T11:35:48.839Z,30.70
2022-09-25T11:40:05.350Z,30.80
2022-09-25T11:43:58.417Z,30.80
2022-09-25T11:47:56.160Z,31.00
2022-09-25T11:51:56.923Z,31.20
2022-09-25T11:56:07.256Z,31.30
2022-09-25T12:00:07.883Z,31.60
2022-09-25T12:04:07.875Z,31.60
2022-09-25T12:08:11.160Z,31.00
2022-09-25T12:12:11.334Z,30.20
2022-09-25T12:16:14.944Z,29.40
2022-09-25T12:20:02.795Z,28.80
2022-09-25T12:24:04.884Z,28.20
2022-09-25T12:27:58.910Z,27.60
2022-09-25T12:31:53.529Z,27.20
2022-09-25T12:36:00.552Z,26.70
2022-09-25T12:39:46.961Z,26.40
2022-09-25T12:43:54.340Z,26.20
2022-09-25T12:47:47.623Z,26.10
2022-09-25T12:51:40.521Z,26.30
2022-09-25T12:55:50.454Z,26.40
2022-09-25T12:59:46.609Z,26.50
2022-09-25T13:03:53.419Z,26.50
2022-09-25T13:07:54.424Z,26.60
2022-09-25T13:11:46.155Z,26.60
2022-09-25T13:15:33.940Z,26.50
2022-09-25T13:19:42.218Z,26.10
2022-09-25T13:23:32.940Z,25.60
2022-09-25T13:27:19.033Z,25.40
2022-09-25T13:31:08.684Z,25.10
2022-09-25T13:35:01.867Z,24.90
2022-09-25T13:39:04.438Z,24.80
2022-09-25T13:42:47.749Z,24.90
2022-09-25T13:46:33.680Z,24.90
2022-09-25T13:50:24.809Z,24.70
2022-09-25T13:54:09.633Z,24.20
2022-09-25T13:58:00.146Z,23.90
2022-09-25T14:01:42.319Z,23.80
2022-09-25T14:05:27.195Z,23.50
2022-09-25T14:09:23.912Z,23.30
2022-09-25T14:13:07.636Z,23.10
2022-09-25T14:16:52.074Z,22.90
2022-09-25T14:20:40.133Z,22.60
2022-09-25T14:24:31.678Z,22.40
2022-09-25T14:28:25.944Z,22.30
2022-09-25T14:33:01.234Z,22.20
2022-09-25T14:37:08.498Z,22.10
2022-09-25T14:41:06.380Z,22.00
2022-09-25T14:45:02.436Z,21.90
2022-09-25T14:48:57.414Z,21.60
2022-09-25T14:52:40.030Z,21.20
2022-09-25T14:56:22.708Z,21.10
2022-09-25T15:00:08.183Z,21.20
2022-09-25T15:03:50.345Z,21.40
2022-09-25T15:07:33.312Z,21.60
2022-09-25T15:11:17.947Z,21.60
2022-09-25T15:15:13.240Z,21.70
2022-09-25T15:18:59.141Z,21.70
2022-09-25T15:22:44.008Z,21.60
2022-09-25T15:26:28.231Z,21.60
2022-09-25T15:30:19.528Z,21.60
2022-09-25T15:34:12.495Z,21.50
2022-09-25T15:38:07.717Z,21.50
2022-09-25T15:41:49.874Z,21.20
2022-09-25T15:45:37.068Z,21.10
2022-09-25T15:49:40.494Z,21.00
2022-09-25T15:53:27.804Z,21.00
2022-09-25T15:57:13.240Z,20.80
2022-09-25T16:01:19.420Z,20.60
2022-09-25T16:05:01.650Z,20.50
2022-09-25T16:08:44.104Z,20.40
2022-09-25T16:12:26.119Z,20.40
2022-09-25T16:16:17.814Z,20.30
2022-09-25T16:20:01.135Z,20.40
2022-09-25T16:23:43.865Z,20.40
2022-09-25T16:27:33.140Z,20.30
2022-09-25T16:31:20.406Z,20.30
2022-09-25T16:35:03.538Z,20.20
2022-09-25T16:39:10.338Z,20.10
2022-09-25T16:42:55.047Z,19.80
2022-09-25T16:46:36.855Z,19.60
2022-09-25T16:50:23.187Z,19.50
2022-09-25T16:54:11.133Z,19.30
2022-09-25T16:57:53.779Z,19.20
2022-09-25T17:01:35.748Z,19.10
2022-09-25T17:05:18.825Z,18.90
2022-09-25T17:09:00.659Z,18.80
2022-09-25T17:12:47.626Z,18.80
2022-09-25T17:16:31.749Z,18.60
2022-09-25T17:20:13.665Z,18.50
2022-09-25T17:23:55.440Z,18.30
2022-09-25T17:27:37.219Z,18.30
2022-09-25T17:31:21.226Z,18.10
2022-09-25T17:35:03.471Z,18.00
2022-09-25T17:38:45.408Z,18.00
2022-09-25T17:42:27.766Z,17.80
2022-09-25T17:46:10.391Z,17.80
2022-09-25T17:49:52.228Z,17.70
2022-09-25T17:53:34.087Z,17.60
2022-09-25T17:57:15.897Z,17.50
2022-09-25T18:00:59.698Z,17.40
2022-09-25T18:04:41.476Z,17.30
2022-09-25T18:08:23.345Z,17.10
2022-09-25T18:12:05.177Z,17.10
2022-09-25T18:15:54.262Z,17.00
2022-09-25T18:19:54.645Z,17.00
2022-09-25T18:23:38.591Z,16.90
2022-09-25T18:27:21.042Z,16.80
2022-09-25T18:31:03.455Z,16.80
2022-09-25T18:34:45.510Z,16.70
2022-09-25T18:38:27.315Z,16.60
2022-09-25T18:42:09.129Z,16.50
2022-09-25T18:45:51.174Z,16.50
2022-09-25T18:49:33.119Z,16.40
2022-09-25T18:53:16.451Z,16.30
2022-09-25T18:56:58.747Z,16.20
2022-09-25T19:00:40.807Z,16.10
2022-09-25T19:04:22.770Z,16.10
2022-09-25T19:08:04.994Z,16.00
2022-09-25T19:11:46.766Z,15.90
2022-09-25T19:15:30.694Z,15.80
2022-09-25T19:19:12.717Z,15.80
2022-09-25T19:22:55.024Z,15.80
2022-09-25T19:26:37.416Z,15.70
2022-09-25T19:30:19.225Z,15.70
2022-09-25T19:34:02.825Z,15.70
2022-09-25T19:37:44.706Z,15.60
2022-09-25T19:41:33.367Z,15.60
2022-09-25T19:45:15.814Z,15.60
2022-09-25T19:48:58.144Z,15.50
2022-09-25T19:52:39.935Z,15.50
2022-09-25T19:56:21.901Z,15.50
2022-09-25T20:00:05.174Z,15.50
2022-09-25T20:03:46.976Z,15.50
2022-09-25T20:07:29.267Z,15.50
2022-09-25T20:11:19.820Z,15.50
2022-09-25T20:15:01.664Z,15.50
2022-09-25T20:18:47.129Z,15.50
2022-09-25T20:22:31.785Z,15.50
2022-09-25T20:26:19.005Z,15.50
2022-09-25T20:30:00.770Z,15.50
2022-09-25T20:33:43.000Z,15.50
2022-09-25T20:37:25.449Z,15.40
2022-09-25T20:41:11.173Z,15.40
2022-09-25T20:44:54.368Z,15.40
2022-09-25T20:48:39.229Z,15.40
2022-09-25T20:52:21.001Z,15.30
2022-09-25T20:56:09.586Z,15.20
2022-09-25T20:59:51.558Z,15.20
2022-09-25T21:03:34.370Z,15.20
2022-09-25T21:07:17.326Z,15.10
2022-09-25T21:11:01.790Z,15.10
2022-09-25T21:14:43.581Z,15.10
2022-09-25T21:18:26.451Z,15.00
2022-09-25T21:22:08.326Z,15.00
2022-09-25T21:25:50.112Z,15.00
2022-09-25T21:29:34.001Z,15.00
2022-09-25T21:33:15.787Z,15.10
2022-09-25T21:36:57.551Z,15.10
2022-09-25T21:40:39.405Z,15.10
2022-09-25T21:44:24.204Z,15.10
2022-09-25T21:48:06.712Z,15.00
2022-09-25T21:51:49.624Z,15.00
2022-09-25T21:55:31.824Z,14.90
2022-09-25T21:59:13.966Z,14.80
2022-09-25T22:02:55.901Z,14.80
2022-09-25T22:06:47.101Z,14.70
2022-09-25T22:10:28.973Z,14.60
2022-09-25T22:14:15.742Z,14.60
2022-09-25T22:17:58.208Z,14.60
2022-09-25T22:21:41.368Z,14.50
2022-09-25T22:25:24.411Z,14.50
2022-09-25T22:29:07.188Z,14.40
2022-09-25T22:32:48.945Z,14.40
2022-09-25T22:36:32.000Z,14.40
2022-09-25T22:40:13.953Z,14.40
2022-09-25T22:43:58.495Z,14.40
2022-09-25T22:47:42.365Z,14.40
2022-09-25T22:51:25.613Z,14.40
2022-09-25T22:55:09.942Z,14.40
2022-09-25T22:58:55.027Z,14.40
2022-09-25T23:02:36.865Z,14.40
2022-09-25T23:06:18.645Z,14.40
2022-09-25T23:10:00.423Z,14.50
2022-09-25T23:13:42.187Z,14.50
2022-09-25T23:17:24.064Z,14.50
2022-09-25T23:21:06.048Z,14.50
2022-09-25T23:24:47.832Z,14.40
2022-09-25T23:28:31.717Z,14.50
2022-09-25T23:32:13.635Z,14.40
2022-09-25T23:36:01.179Z,14.50
2022-09-25T23:39:42.992Z,14.50
2022-09-25T23:43:24.783Z,14.50
2022-09-25T23:47:06.684Z,14.50
2022-09-25T23:50:51.282Z,14.50
2022-09-25T23:54:33.430Z,14.50
2022-09-25T23:58:15.288Z,14.50
